createdAt,value
2022-08-05T00:00:53.609Z,2.30
2022-08-05T00:03:20.469Z,2.33
2022-08-05T00:06:05.236Z,2.45
2022-08-05T00:08:36.434Z,2.40
2022-08-05T00:11:07.630Z,2.40
2022-08-05T00:13:53.224Z,2.00
2022-08-05T00:16:35.931Z,2.30
2022-08-05T00:19:04.120Z,2.30
2022-08-05T00:21:30.971Z,2.10
2022-08-05T00:24:10.561Z,2.30
2022-08-05T00:26:38.537Z,2.50
2022-08-05T00:29:05.448Z,2.10
2022-08-05T00:31:53.912Z,2.00
2022-08-05T00:34:56.279Z,2.10
2022-08-05T00:37:10.450Z,2.55
2022-08-05T00:39:44.555Z,2.30
2022-08-05T00:42:39.705Z,2.30
2022-08-05T00:45:11.745Z,2.40
2022-08-05T00:47:56.601Z,2.40
2022-08-05T00:50:25.489Z,2.70
2022-08-05T00:52:55.332Z,2.40
2022-08-05T00:55:23.489Z,2.20
2022-08-05T00:58:13.440Z,2.00
2022-08-05T01:00:42.290Z,2.10
2022-08-05T01:03:22.940Z,2.10
2022-08-05T01:05:54.600Z,2.15
2022-08-05T01:08:30.647Z,2.30
2022-08-05T01:11:33.284Z,2.20
2022-08-05T01:14:27.776Z,2.10
2022-08-05T01:17:11.736Z,2.03
2022-08-05T01:20:01.615Z,2.30
2022-08-05T01:22:42.169Z,2.10
2022-08-05T01:25:59.729Z,2.22
2022-08-05T01:28:30.628Z,2.13
2022-08-05T01:31:04.633Z,2.10
2022-08-05T01:33:36.071Z,2.10
2022-08-05T01:36:13.230Z,1.70
2022-08-05T01:38:48.498Z,1.90
2022-08-05T01:41:21.725Z,2.10
2022-08-05T01:43:53.432Z,2.00
2022-08-05T01:46:41.305Z,1.80
2022-08-05T01:49:23.383Z,1.98
2022-08-05T01:51:58.043Z,1.95
2022-08-05T01:54:46.045Z,2.20
2022-08-05T01:58:18.751Z,1.90
2022-08-05T02:00:12.093Z,2.00
2022-08-05T02:02:46.521Z,2.00
2022-08-05T02:05:23.465Z,2.20
2022-08-05T02:07:59.968Z,2.17
2022-08-05T02:10:31.609Z,1.80
2022-08-05T02:13:16.317Z,1.92
2022-08-05T02:16:01.505Z,1.90
2022-08-05T02:18:36.336Z,2.08
2022-08-05T02:21:16.283Z,1.80
2022-08-05T02:23:47.312Z,1.98
2022-08-05T02:26:22.049Z,2.00
2022-08-05T02:28:50.072Z,2.00
2022-08-05T02:31:26.556Z,1.80
2022-08-05T02:34:06.678Z,1.90
2022-08-05T02:36:42.478Z,1.73
2022-08-05T02:39:10.882Z,2.00
2022-08-05T02:41:57.448Z,1.90
2022-08-05T02:44:26.986Z,1.80
2022-08-05T02:47:00.459Z,1.75
2022-08-05T02:49:35.669Z,1.88
2022-08-05T02:52:09.673Z,1.80
2022-08-05T02:54:41.253Z,2.00
2022-08-05T02:58:09.384Z,2.00
2022-08-05T02:59:59.957Z,2.30
2022-08-05T03:02:36.696Z,1.90
2022-08-05T03:05:05.053Z,2.08
2022-08-05T03:08:00.354Z,2.00
2022-08-05T03:10:22.002Z,1.80
2022-08-05T03:12:53.474Z,2.10
2022-08-05T03:15:23.754Z,1.90
2022-08-05T03:17:55.655Z,2.00
2022-08-05T03:20:24.422Z,2.10
2022-08-05T03:22:52.960Z,2.10
2022-08-05T03:25:33.016Z,2.00
2022-08-05T03:28:11.092Z,2.13
2022-08-05T03:30:42.623Z,2.20
2022-08-05T03:33:09.884Z,2.10
2022-08-05T03:35:41.139Z,1.90
2022-08-05T03:38:11.766Z,2.10
2022-08-05T03:40:45.187Z,2.00
2022-08-05T03:43:58.405Z,1.88
2022-08-05T03:46:03.080Z,2.10
2022-08-05T03:48:30.782Z,2.00
2022-08-05T03:52:36.556Z,2.28
2022-08-05T03:55:51.936Z,2.10
2022-08-05T03:57:16.499Z,2.40
2022-08-05T03:59:55.727Z,2.20
2022-08-05T04:02:37.742Z,2.17
2022-08-05T04:05:09.681Z,2.30
2022-08-05T04:07:58.260Z,2.00
2022-08-05T04:10:33.297Z,2.50
2022-08-05T04:13:05.402Z,2.42
2022-08-05T04:15:32.723Z,2.20
2022-08-05T04:18:09.533Z,2.08
2022-08-05T04:20:37.936Z,2.20
2022-08-05T04:23:12.316Z,2.05
2022-08-05T04:26:00.167Z,2.38
2022-08-05T04:28:31.034Z,2.10
2022-08-05T04:31:00.966Z,2.30
2022-08-05T04:34:17.594Z,1.90
2022-08-05T04:36:44.947Z,2.50
2022-08-05T04:39:03.736Z,2.70
2022-08-05T04:41:36.912Z,2.60
2022-08-05T04:44:08.981Z,2.93
2022-08-05T04:46:37.012Z,2.90
2022-08-05T04:49:04.011Z,2.90
2022-08-05T04:51:31.948Z,2.47
2022-08-05T04:54:01.274Z,2.47
2022-08-05T04:56:34.537Z,2.60
2022-08-05T04:59:22.442Z,2.50
2022-08-05T05:02:08.196Z,2.50
2022-08-05T05:04:44.025Z,2.50
2022-08-05T05:07:17.056Z,2.47
2022-08-05T05:09:45.168Z,2.30
2022-08-05T05:12:12.011Z,2.80
2022-08-05T05:14:49.108Z,2.80
2022-08-05T05:17:19.868Z,2.60
2022-08-05T05:19:52.851Z,2.60
2022-08-05T05:22:23.840Z,2.70
2022-08-05T05:24:59.985Z,2.53
2022-08-05T05:27:44.415Z,2.58
2022-08-05T05:30:15.316Z,2.50
2022-08-05T05:32:56.112Z,2.53
2022-08-05T05:35:23.324Z,2.60
2022-08-05T05:37:59.465Z,2.90
2022-08-05T05:40:28.957Z,2.25
2022-08-05T05:42:57.644Z,2.80
2022-08-05T05:45:24.825Z,2.78
2022-08-05T05:48:06.762Z,2.60
2022-08-05T05:50:44.090Z,2.47
2022-08-05T05:53:21.104Z,2.72
2022-08-05T05:55:51.507Z,2.60
2022-08-05T05:58:32.026Z,2.42
2022-08-05T06:01:12.256Z,2.30
2022-08-05T06:04:00.684Z,2.42
2022-08-05T06:06:30.840Z,2.40
2022-08-05T06:08:58.552Z,2.60
2022-08-05T06:11:26.050Z,2.20
2022-08-05T06:13:54.008Z,2.38
2022-08-05T06:16:29.446Z,2.27
2022-08-05T06:19:05.750Z,2.70
2022-08-05T06:21:37.603Z,2.20
2022-08-05T06:24:11.496Z,2.40
2022-08-05T06:26:51.406Z,2.30
2022-08-05T06:29:25.349Z,2.55
2022-08-05T06:32:21.304Z,2.20
2022-08-05T06:34:56.262Z,2.58
2022-08-05T06:37:56.202Z,2.47
2022-08-05T06:40:11.269Z,2.50
2022-08-05T06:42:39.918Z,2.17
2022-08-05T06:45:08.654Z,2.40
2022-08-05T06:48:36.368Z,2.50
2022-08-05T06:50:23.513Z,2.30
2022-08-05T06:52:58.590Z,2.20
2022-08-05T06:55:36.158Z,2.13
2022-08-05T06:58:29.804Z,2.53
2022-08-05T07:00:50.961Z,2.30
2022-08-05T07:03:17.969Z,2.03
2022-08-05T07:05:46.295Z,2.40
2022-08-05T07:08:13.571Z,2.17
2022-08-05T07:10:52.769Z,2.17
2022-08-05T07:13:59.171Z,2.40
2022-08-05T07:17:56.950Z,2.37
2022-08-05T07:22:28.233Z,2.10
2022-08-05T07:24:58.324Z,2.20
2022-08-05T07:27:27.630Z,2.22
2022-08-05T07:30:24.592Z,2.40
2022-08-05T07:32:57.538Z,2.00
2022-08-05T07:36:02.248Z,2.23
2022-08-05T07:38:12.441Z,2.10
2022-08-05T07:41:00.325Z,2.20
2022-08-05T07:43:29.683Z,2.00
2022-08-05T07:45:58.517Z,2.40
2022-08-05T07:49:02.777Z,2.20
2022-08-05T07:51:23.474Z,2.10
2022-08-05T07:54:01.890Z,1.92
2022-08-05T07:57:00.759Z,1.70
2022-08-05T07:59:15.762Z,1.80
2022-08-05T08:01:52.465Z,1.80
2022-08-05T08:04:37.454Z,1.80
2022-08-05T08:07:05.431Z,1.70
2022-08-05T08:09:34.505Z,1.65
2022-08-05T08:12:08.322Z,1.50
2022-08-05T08:14:46.809Z,1.70
2022-08-05T08:17:15.971Z,1.70
2022-08-05T08:20:23.401Z,1.50
2022-08-05T08:22:32.352Z,1.60
2022-08-05T08:25:03.151Z,1.60
2022-08-05T08:27:40.074Z,1.30
2022-08-05T08:30:30.007Z,1.53
2022-08-05T08:33:02.686Z,1.60
2022-08-05T08:35:35.075Z,1.50
2022-08-05T08:38:07.682Z,1.60
2022-08-05T08:40:35.393Z,1.60
2022-08-05T08:45:21.360Z,1.50
2022-08-05T08:45:54.297Z,1.50
2022-08-05T08:48:41.466Z,1.50
2022-08-05T08:52:02.148Z,1.60
2022-08-05T08:53:57.133Z,1.50
2022-08-05T08:56:27.177Z,1.50
2022-08-05T08:58:54.873Z,1.50
2022-08-05T09:01:25.812Z,1.58
2022-08-05T09:03:57.604Z,1.60
2022-08-05T09:06:30.227Z,1.60
2022-08-05T09:09:00.231Z,1.60
2022-08-05T09:11:53.126Z,1.50
2022-08-05T09:14:56.618Z,1.63
2022-08-05T09:17:03.759Z,1.77
2022-08-05T09:19:36.774Z,1.70
2022-08-05T09:22:31.755Z,1.70
2022-08-05T09:25:14.073Z,1.60
2022-08-05T09:28:05.497Z,1.40
2022-08-05T09:30:34.831Z,1.60
2022-08-05T09:33:02.589Z,1.70
2022-08-05T09:35:31.779Z,1.70
2022-08-05T09:38:16.722Z,1.70
2022-08-05T09:40:53.922Z,1.70
2022-08-05T09:43:28.202Z,1.90
2022-08-05T09:46:27.784Z,1.80
2022-08-05T09:49:07.722Z,1.60
2022-08-05T09:51:48.879Z,1.60
2022-08-05T09:54:21.255Z,1.70
2022-08-05T09:56:57.375Z,1.80
2022-08-05T09:59:27.778Z,1.70
2022-08-05T10:01:57.886Z,1.60
2022-08-05T10:04:35.847Z,1.70
2022-08-05T10:07:06.125Z,2.10
2022-08-05T10:10:14.181Z,1.63
2022-08-05T10:12:49.181Z,1.90
2022-08-05T10:15:23.084Z,1.80
2022-08-05T10:18:03.434Z,1.92
2022-08-05T10:20:32.098Z,2.00
2022-08-05T10:23:01.845Z,2.00
2022-08-05T10:25:30.466Z,2.00
2022-08-05T10:28:13.612Z,2.00
2022-08-05T10:32:51.032Z,1.90
2022-08-05T10:33:35.224Z,2.00
2022-08-05T10:36:04.535Z,2.10
2022-08-05T10:38:33.285Z,1.90
2022-08-05T10:41:27.413Z,1.90
2022-08-05T10:44:16.223Z,1.93
2022-08-05T10:46:50.725Z,2.20
2022-08-05T10:49:27.156Z,2.10
2022-08-05T10:52:02.605Z,2.07
2022-08-05T10:54:57.040Z,2.10
2022-08-05T10:57:29.530Z,2.20
2022-08-05T11:00:19.718Z,2.00
2022-08-05T11:03:24.646Z,1.90
2022-08-05T11:06:08.623Z,2.30
2022-08-05T11:09:24.464Z,1.80
2022-08-05T11:12:26.461Z,2.00
2022-08-05T11:15:19.376Z,1.93
2022-08-05T11:18:00.484Z,2.00
2022-08-05T11:20:44.666Z,2.10
2022-08-05T11:24:02.964Z,2.00
2022-08-05T11:26:28.815Z,1.75
2022-08-05T11:29:11.358Z,2.00
2022-08-05T11:31:56.519Z,2.00
2022-08-05T11:34:37.595Z,1.80
2022-08-05T11:37:09.255Z,2.10
2022-08-05T11:40:00.181Z,2.10
2022-08-05T11:42:29.687Z,2.38
2022-08-05T11:45:05.861Z,2.00
2022-08-05T11:47:54.507Z,2.20
2022-08-05T11:50:22.373Z,2.20
2022-08-05T11:52:52.079Z,2.37
2022-08-05T11:55:21.407Z,2.30
2022-08-05T11:58:09.468Z,1.83
2022-08-05T12:00:41.302Z,2.40
2022-08-05T12:03:31.704Z,2.25
2022-08-05T12:06:06.686Z,1.90
2022-08-05T12:08:50.042Z,2.10
2022-08-05T12:11:20.758Z,2.20
2022-08-05T12:13:54.951Z,2.00
2022-08-05T12:16:34.625Z,2.47
2022-08-05T12:19:08.284Z,2.30
2022-08-05T12:21:43.287Z,2.20
2022-08-05T12:24:20.959Z,2.10
2022-08-05T12:26:53.914Z,2.40
2022-08-05T12:29:23.554Z,2.20
2022-08-05T12:32:02.083Z,2.50
2022-08-05T12:34:37.231Z,2.40
2022-08-05T12:37:10.944Z,2.38
2022-08-05T12:39:48.581Z,2.20
2022-08-05T12:42:20.336Z,2.40
2022-08-05T12:44:47.964Z,2.10
2022-08-05T12:47:26.915Z,2.47
2022-08-05T12:50:03.227Z,2.10
2022-08-05T12:52:38.782Z,2.30
2022-08-05T12:55:21.823Z,2.25
2022-08-05T12:58:38.610Z,2.30
2022-08-05T13:02:01.735Z,2.40
2022-08-05T13:03:32.583Z,2.20
2022-08-05T13:06:01.464Z,2.30
2022-08-05T13:08:32.383Z,2.60
2022-08-05T13:11:01.069Z,2.60
2022-08-05T13:14:05.667Z,2.13
2022-08-05T13:16:16.996Z,2.08
2022-08-05T13:18:55.056Z,2.33
2022-08-05T13:21:27.838Z,2.40
2022-08-05T13:24:04.986Z,2.20
2022-08-05T13:26:31.808Z,2.50
2022-08-05T13:28:58.956Z,2.20
2022-08-05T13:31:33.796Z,2.30
2022-08-05T13:34:22.983Z,2.40
2022-08-05T13:36:53.039Z,2.30
2022-08-05T13:40:12.952Z,2.28
2022-08-05T13:42:07.428Z,2.40
2022-08-05T13:44:45.024Z,2.40
2022-08-05T13:47:35.754Z,2.22
2022-08-05T13:50:04.512Z,2.40
2022-08-05T13:52:35.292Z,2.38
2022-08-05T13:55:07.931Z,2.40
2022-08-05T13:57:50.810Z,2.10
2022-08-05T14:00:27.750Z,2.10
2022-08-05T14:02:56.683Z,2.40
2022-08-05T14:05:48.200Z,2.20
2022-08-05T14:08:20.389Z,2.83
2022-08-05T14:10:54.029Z,2.50
2022-08-05T14:13:30.356Z,2.30
2022-08-05T14:16:09.044Z,2.20
2022-08-05T14:18:38.264Z,2.40
2022-08-05T14:22:07.345Z,2.38
2022-08-05T14:23:52.056Z,2.40
2022-08-05T14:26:38.612Z,2.60
2022-08-05T14:29:15.938Z,2.40
2022-08-05T14:32:02.505Z,2.45
2022-08-05T14:34:34.989Z,2.50
2022-08-05T14:37:03.822Z,2.70
2022-08-05T14:39:49.219Z,2.60
2022-08-05T14:42:29.419Z,2.40
2022-08-05T14:44:56.563Z,2.70
2022-08-05T14:48:02.632Z,2.70
2022-08-05T14:50:14.234Z,2.65
2022-08-05T14:52:52.947Z,2.40
2022-08-05T14:55:24.439Z,2.70
2022-08-05T14:57:55.902Z,2.53
2022-08-05T15:00:27.996Z,2.60
2022-08-05T15:02:55.381Z,2.70
2022-08-05T15:05:30.176Z,2.60
2022-08-05T15:08:15.902Z,2.60
2022-08-05T15:10:56.714Z,2.40
2022-08-05T15:13:28.678Z,2.50
2022-08-05T15:16:13.183Z,2.60
2022-08-05T15:18:40.249Z,2.80
2022-08-05T15:21:08.694Z,3.00
2022-08-05T15:23:35.583Z,3.28
2022-08-05T15:26:05.013Z,2.95
2022-08-05T15:28:31.804Z,3.30
2022-08-05T15:30:58.747Z,3.10
2022-08-05T15:34:05.063Z,2.70
2022-08-05T15:36:17.592Z,3.17
2022-08-05T15:40:58.661Z,2.80
2022-08-05T15:41:56.247Z,2.90
2022-08-05T15:44:26.313Z,3.00
2022-08-05T15:46:55.633Z,2.87
2022-08-05T15:49:40.990Z,2.90
2022-08-05T15:52:12.962Z,2.90
2022-08-05T15:54:56.544Z,2.70
2022-08-05T15:57:23.626Z,3.08
2022-08-05T15:59:54.040Z,2.90
2022-08-05T16:02:25.488Z,3.20
2022-08-05T16:04:54.435Z,2.80
2022-08-05T16:07:21.470Z,2.70
2022-08-05T16:09:49.855Z,3.00
2022-08-05T16:12:17.718Z,3.55
2022-08-05T16:14:46.771Z,3.10
2022-08-05T16:17:13.660Z,3.00
2022-08-05T16:20:03.009Z,3.20
2022-08-05T16:22:33.754Z,3.10
2022-08-05T16:25:05.401Z,2.90
2022-08-05T16:28:00.641Z,2.90
2022-08-05T16:30:26.145Z,3.08
2022-08-05T16:32:55.490Z,2.77
2022-08-05T16:35:27.711Z,2.90
2022-08-05T16:38:16.225Z,2.80
2022-08-05T16:40:42.095Z,2.67
2022-08-05T16:43:16.456Z,3.80
2022-08-05T16:46:04.964Z,4.63
2022-08-05T16:48:35.136Z,6.00
2022-08-05T16:51:02.367Z,3.55
2022-08-05T16:54:02.488Z,7.13
2022-08-05T16:56:22.719Z,4.67
2022-08-05T16:58:50.365Z,3.42
2022-08-05T17:01:18.739Z,2.90
2022-08-05T17:03:46.060Z,3.10
2022-08-05T17:06:13.223Z,2.90
2022-08-05T17:08:52.468Z,2.80
2022-08-05T17:11:24.997Z,3.00
2022-08-05T17:14:05.843Z,2.70
2022-08-05T17:16:37.982Z,2.60
2022-08-05T17:19:09.638Z,2.45
2022-08-05T17:21:37.766Z,2.70
2022-08-05T17:24:31.263Z,2.50
2022-08-05T17:26:56.557Z,2.45
2022-08-05T17:29:39.997Z,2.50
2022-08-05T17:32:17.375Z,2.38
2022-08-05T17:34:47.580Z,2.50
2022-08-05T17:37:39.610Z,2.45
2022-08-05T17:40:10.220Z,2.80
2022-08-05T17:42:43.130Z,2.50
2022-08-05T17:45:21.103Z,2.50
2022-08-05T17:47:55.476Z,2.50
2022-08-05T17:50:30.020Z,2.45
2022-08-05T17:53:02.844Z,2.33
2022-08-05T17:55:37.416Z,2.65
2022-08-05T17:58:09.287Z,2.20
2022-08-05T18:00:36.905Z,2.40
2022-08-05T18:03:12.034Z,2.42
2022-08-05T18:05:53.651Z,2.60
2022-08-05T18:08:21.182Z,2.25
2022-08-05T18:10:48.012Z,2.20
2022-08-05T18:13:15.536Z,2.37
2022-08-05T18:15:42.785Z,2.30
2022-08-05T18:18:11.675Z,1.90
2022-08-05T18:20:38.944Z,2.60
2022-08-05T18:23:09.433Z,1.90
2022-08-05T18:25:44.903Z,2.40
2022-08-05T18:28:16.041Z,2.20
2022-08-05T18:30:45.171Z,1.90
2022-08-05T18:33:13.700Z,2.10
2022-08-05T18:36:00.670Z,2.38
2022-08-05T18:38:29.116Z,2.10
2022-08-05T18:41:55.344Z,2.40
2022-08-05T18:43:49.087Z,2.00
2022-08-05T18:46:19.477Z,2.28
2022-08-05T18:48:51.811Z,2.20
2022-08-05T18:52:05.455Z,2.20
2022-08-05T18:54:30.879Z,2.00
2022-08-05T18:57:01.703Z,2.20
2022-08-05T18:59:42.874Z,2.40
2022-08-05T19:02:27.079Z,2.40
2022-08-05T19:05:02.884Z,2.10
2022-08-05T19:07:46.221Z,2.20
2022-08-05T19:10:14.790Z,2.10
2022-08-05T19:12:43.273Z,2.20
2022-08-05T19:15:36.746Z,1.90
2022-08-05T19:18:09.416Z,2.20
2022-08-05T19:20:41.608Z,2.40
2022-08-05T19:23:22.742Z,1.90
2022-08-05T19:26:02.174Z,2.10
2022-08-05T19:28:31.108Z,2.20
2022-08-05T19:31:00.335Z,2.10
2022-08-05T19:33:35.107Z,2.10
2022-08-05T19:36:07.269Z,2.20
2022-08-05T19:38:36.685Z,2.20
2022-08-05T19:41:07.413Z,2.37
2022-08-05T19:44:04.731Z,2.22
2022-08-05T19:46:30.416Z,2.50
2022-08-05T19:49:07.012Z,2.30
2022-08-05T19:52:06.010Z,2.20
2022-08-05T19:54:31.486Z,2.20
2022-08-05T19:57:08.679Z,2.30
2022-08-05T19:59:55.915Z,1.90
2022-08-05T20:02:27.254Z,2.20
2022-08-05T20:04:59.659Z,2.40
2022-08-05T20:07:46.698Z,2.60
2022-08-05T20:10:16.690Z,2.42
2022-08-05T20:12:45.940Z,2.40
2022-08-05T20:15:13.963Z,2.80
2022-08-05T20:17:43.217Z,2.30
2022-08-05T20:20:10.985Z,2.13
2022-08-05T20:22:38.312Z,2.20
2022-08-05T20:25:09.233Z,2.50
2022-08-05T20:27:41.927Z,2.30
2022-08-05T20:30:10.313Z,2.50
2022-08-05T20:32:37.251Z,2.20
2022-08-05T20:35:12.433Z,2.28
2022-08-05T20:38:06.191Z,2.30
2022-08-05T20:40:27.427Z,2.40
2022-08-05T20:43:00.039Z,2.83
2022-08-05T20:45:56.548Z,2.70
2022-08-05T20:48:16.429Z,2.97
2022-08-05T20:50:45.205Z,3.00
2022-08-05T20:53:16.331Z,3.40
2022-08-05T20:56:08.296Z,3.40
2022-08-05T20:58:35.835Z,3.90
2022-08-05T21:01:04.770Z,3.40
2022-08-05T21:03:34.566Z,3.60
2022-08-05T21:06:02.122Z,3.70
2022-08-05T21:08:41.845Z,3.33
2022-08-05T21:11:12.570Z,3.75
2022-08-05T21:13:47.945Z,3.58
2022-08-05T21:16:23.463Z,3.47
2022-08-05T21:19:00.353Z,3.97
2022-08-05T21:21:43.956Z,3.58
2022-08-05T21:24:16.368Z,3.60
2022-08-05T21:26:58.473Z,3.72
2022-08-05T21:29:31.703Z,3.67
2022-08-05T21:31:59.926Z,3.42
2022-08-05T21:34:28.297Z,3.40
2022-08-05T21:36:58.524Z,3.50
2022-08-05T21:39:26.978Z,3.60
2022-08-05T21:42:01.673Z,3.60
2022-08-05T21:44:32.097Z,3.80
2022-08-05T21:46:59.844Z,3.63
2022-08-05T21:49:48.136Z,3.38
2022-08-05T21:52:22.155Z,3.10
2022-08-05T21:54:55.780Z,2.95
2022-08-05T21:57:31.581Z,2.70
2022-08-05T22:00:11.157Z,2.60
2022-08-05T22:02:38.871Z,2.70
2022-08-05T22:05:06.149Z,2.65
2022-08-05T22:07:54.437Z,2.65
2022-08-05T22:10:26.504Z,2.90
2022-08-05T22:12:57.459Z,2.60
2022-08-05T22:16:01.397Z,2.78
2022-08-05T22:18:13.137Z,2.67
2022-08-05T22:20:41.888Z,2.55
2022-08-05T22:24:02.182Z,2.70
2022-08-05T22:26:37.035Z,2.58
2022-08-05T22:29:04.622Z,2.35
2022-08-05T22:31:44.550Z,2.30
2022-08-05T22:34:12.859Z,2.42
2022-08-05T22:36:48.164Z,2.70
2022-08-05T22:39:21.355Z,2.70
2022-08-05T22:42:10.516Z,2.70
2022-08-05T22:44:35.412Z,2.50
2022-08-05T22:47:05.742Z,2.60
2022-08-05T22:50:19.698Z,2.90
2022-08-05T22:52:30.493Z,2.75
2022-08-05T22:55:01.447Z,2.75
2022-08-05T22:57:36.578Z,2.55
2022-08-05T23:00:07.691Z,2.90
2022-08-05T23:02:39.799Z,2.50
2022-08-05T23:05:14.695Z,2.80
2022-08-05T23:07:45.440Z,2.90
2022-08-05T23:10:16.406Z,2.80
2022-08-05T23:12:51.459Z,2.60
2022-08-05T23:15:29.268Z,2.90
2022-08-05T23:18:01.025Z,2.85
2022-08-05T23:20:33.463Z,3.00
2022-08-05T23:23:05.920Z,2.80
2022-08-05T23:25:55.045Z,2.85
2022-08-05T23:28:23.858Z,2.60
2022-08-05T23:30:54.719Z,2.90
2022-08-05T23:33:26.611Z,2.90
2022-08-05T23:36:10.529Z,2.97
2022-08-05T23:38:38.110Z,2.90
2022-08-05T23:41:05.059Z,3.30
2022-08-05T23:44:03.238Z,3.10
2022-08-05T23:46:21.968Z,3.20
2022-08-05T23:49:00.568Z,2.88
2022-08-05T23:51:54.204Z,2.75
2022-08-05T23:54:25.116Z,3.10
2022-08-05T23:56:54.182Z,2.90
2022-08-05T23:59:21.169Z,2.70
